createdAt,value
2023-02-27T00:01:47.880Z,1.85
2023-02-27T00:04:14.624Z,1.85
2023-02-27T00:06:41.219Z,1.97
2023-02-27T00:09:08.340Z,1.88
2023-02-27T00:11:34.847Z,1.96
2023-02-27T00:14:01.289Z,1.92
2023-02-27T00:16:27.810Z,1.89
2023-02-27T00:18:54.369Z,1.91
2023-02-27T00:21:20.982Z,1.98
2023-02-27T00:23:47.413Z,1.93
2023-02-27T00:26:13.959Z,1.94
2023-02-27T00:28:40.469Z,1.87
2023-02-27T00:31:06.982Z,1.89
2023-02-27T00:33:33.473Z,1.84
2023-02-27T00:36:01.960Z,1.84
2023-02-27T00:38:29.282Z,1.76
2023-02-27T00:40:55.830Z,1.75
2023-02-27T00:43:22.298Z,1.71
2023-02-27T00:45:48.856Z,1.67
2023-02-27T00:48:16.299Z,1.64
2023-02-27T00:50:43.543Z,1.57
2023-02-27T00:53:10.310Z,1.64
2023-02-27T00:55:36.823Z,1.59
2023-02-27T00:58:03.569Z,1.55
2023-02-27T01:00:30.116Z,1.55
2023-02-27T01:02:56.692Z,1.52
2023-02-27T01:05:23.281Z,1.62
2023-02-27T01:07:50.167Z,1.70
2023-02-27T01:10:16.843Z,1.66
2023-02-27T01:12:43.693Z,1.65
2023-02-27T01:15:11.942Z,1.66
2023-02-27T01:17:38.639Z,1.56
2023-02-27T01:20:07.092Z,1.44
2023-02-27T01:22:34.208Z,1.40
2023-02-27T01:25:00.964Z,1.37
2023-02-27T01:27:27.889Z,1.55
2023-02-27T01:29:54.409Z,1.45
2023-02-27T01:32:20.974Z,1.40
2023-02-27T01:34:47.655Z,1.36
2023-02-27T01:37:14.168Z,1.33
2023-02-27T01:39:40.655Z,1.31
2023-02-27T01:42:25.692Z,1.26
2023-02-27T01:45:24.086Z,1.27
2023-02-27T01:47:56.393Z,1.19
2023-02-27T01:50:23.935Z,1.20
2023-02-27T01:52:56.196Z,1.21
2023-02-27T01:55:24.680Z,1.14
2023-02-27T01:57:52.981Z,1.19
2023-02-27T02:00:19.931Z,1.22
2023-02-27T02:03:17.123Z,1.23
2023-02-27T02:05:45.230Z,1.23
2023-02-27T02:08:15.057Z,1.20
2023-02-27T02:10:41.788Z,1.22
2023-02-27T02:13:09.524Z,1.25
2023-02-27T02:15:41.884Z,1.19
2023-02-27T02:18:36.379Z,1.25
2023-02-27T02:21:40.127Z,1.28
2023-02-27T02:24:45.147Z,1.22
2023-02-27T02:27:28.680Z,1.18
2023-02-27T02:30:15.415Z,1.22
2023-02-27T02:33:06.469Z,1.17
2023-02-27T02:36:09.236Z,1.15
2023-02-27T02:38:49.676Z,1.16
2023-02-27T02:41:51.450Z,1.21
2023-02-27T02:44:36.362Z,1.15
2023-02-27T02:47:11.352Z,1.22
2023-02-27T02:49:43.838Z,1.27
2023-02-27T02:52:23.056Z,1.23
2023-02-27T02:54:55.253Z,1.24
2023-02-27T02:57:29.812Z,1.30
2023-02-27T03:00:09.374Z,1.27
2023-02-27T03:02:43.554Z,1.25
2023-02-27T03:05:17.187Z,1.28
2023-02-27T03:08:02.963Z,1.24
2023-02-27T03:10:38.062Z,1.30
2023-02-27T03:13:18.060Z,1.25
2023-02-27T03:16:04.903Z,1.20
2023-02-27T03:19:18.372Z,1.24
2023-02-27T03:21:57.354Z,1.27
2023-02-27T03:24:30.173Z,1.30
2023-02-27T03:27:02.754Z,1.30
2023-02-27T03:29:49.465Z,1.31
2023-02-27T03:32:25.171Z,1.24
2023-02-27T03:34:51.732Z,1.19
2023-02-27T03:37:39.948Z,1.08
2023-02-27T03:40:19.887Z,1.04
2023-02-27T03:42:57.837Z,0.95
2023-02-27T03:45:43.573Z,0.87
2023-02-27T03:48:10.136Z,0.84
2023-02-27T03:50:37.417Z,0.82
2023-02-27T03:53:11.194Z,0.77
2023-02-27T03:55:43.844Z,0.70
2023-02-27T03:58:10.498Z,0.68
2023-02-27T04:00:37.420Z,0.69
2023-02-27T04:03:05.424Z,0.69
2023-02-27T04:05:33.039Z,0.64
2023-02-27T04:08:11.385Z,0.61
2023-02-27T04:10:53.060Z,0.51
2023-02-27T04:13:36.794Z,0.51
2023-02-27T04:16:27.726Z,0.52
2023-02-27T04:19:37.054Z,0.50
2023-02-27T04:22:09.382Z,0.49
2023-02-27T04:24:58.979Z,0.50
2023-02-27T04:27:40.497Z,0.50
2023-02-27T04:30:36.404Z,0.50
2023-02-27T04:33:08.746Z,0.56
2023-02-27T04:35:59.777Z,0.71
2023-02-27T04:38:32.274Z,0.80
2023-02-27T04:41:08.844Z,0.75
2023-02-27T04:43:38.889Z,0.78
2023-02-27T04:46:08.733Z,0.82
2023-02-27T04:48:54.023Z,0.79
2023-02-27T04:51:26.582Z,0.80
2023-02-27T04:53:58.786Z,0.73
2023-02-27T04:56:31.222Z,0.73
2023-02-27T04:59:03.872Z,0.71
2023-02-27T05:01:55.430Z,0.64
2023-02-27T05:04:24.417Z,0.62
2023-02-27T05:06:54.222Z,0.59
2023-02-27T05:09:31.284Z,0.51
2023-02-27T05:12:32.068Z,0.53
2023-02-27T05:15:06.297Z,0.51
2023-02-27T05:17:48.535Z,0.56
2023-02-27T05:20:17.277Z,0.67
2023-02-27T05:22:59.615Z,0.55
2023-02-27T05:25:53.944Z,0.46
2023-02-27T05:28:45.069Z,0.50
2023-02-27T05:31:33.091Z,0.51
2023-02-27T05:34:17.734Z,0.48
2023-02-27T05:36:51.957Z,0.53
2023-02-27T05:39:23.019Z,0.51
2023-02-27T05:42:19.648Z,0.41
2023-02-27T05:44:53.969Z,0.39
2023-02-27T05:47:24.101Z,0.37
2023-02-27T05:50:00.064Z,0.32
2023-02-27T05:52:29.403Z,0.35
2023-02-27T05:54:56.042Z,0.29
2023-02-27T05:57:45.783Z,0.30
2023-02-27T06:00:38.816Z,0.31
2023-02-27T06:03:05.553Z,0.29
2023-02-27T06:05:32.573Z,0.23
2023-02-27T06:07:59.042Z,0.22
2023-02-27T06:10:26.083Z,0.34
2023-02-27T06:12:52.674Z,0.39
2023-02-27T06:15:19.707Z,0.34
2023-02-27T06:17:46.263Z,0.24
2023-02-27T06:20:13.031Z,0.17
2023-02-27T06:22:39.630Z,0.17
2023-02-27T06:25:06.627Z,0.17
2023-02-27T06:27:33.110Z,0.13
2023-02-27T06:29:59.721Z,0.13
2023-02-27T06:32:26.244Z,0.10
2023-02-27T06:34:53.204Z,0.14
2023-02-27T06:37:21.562Z,0.14
2023-02-27T06:39:48.120Z,0.13
2023-02-27T06:42:14.592Z,0.09
2023-02-27T06:44:41.053Z,0.16
2023-02-27T06:47:07.521Z,0.18
2023-02-27T06:49:34.015Z,0.26
2023-02-27T06:52:00.509Z,0.27
2023-02-27T06:54:27.042Z,0.28
2023-02-27T06:56:53.502Z,0.36
2023-02-27T06:59:20.034Z,0.44
2023-02-27T07:01:46.512Z,0.53
2023-02-27T07:04:16.749Z,0.63
2023-02-27T07:07:35.316Z,0.59
2023-02-27T07:09:30.066Z,0.67
2023-02-27T07:11:56.641Z,0.62
2023-02-27T07:14:23.309Z,0.68
2023-02-27T07:16:53.895Z,0.79
2023-02-27T07:19:21.885Z,0.78
2023-02-27T07:21:48.808Z,0.78
2023-02-27T07:24:15.556Z,0.83
2023-02-27T07:26:42.114Z,0.98
2023-02-27T07:29:09.837Z,1.02
2023-02-27T07:31:36.383Z,1.16
2023-02-27T07:34:03.400Z,1.16
2023-02-27T07:36:31.104Z,1.18
2023-02-27T07:38:58.268Z,1.32
2023-02-27T07:41:30.836Z,1.47
2023-02-27T07:43:57.834Z,1.51
2023-02-27T07:46:27.364Z,1.68
2023-02-27T07:48:54.617Z,1.79
2023-02-27T07:51:21.495Z,1.84
2023-02-27T07:53:48.025Z,1.93
2023-02-27T07:56:14.688Z,2.07
2023-02-27T07:58:41.158Z,2.25
2023-02-27T08:01:07.675Z,2.35
2023-02-27T08:03:34.245Z,2.45
2023-02-27T08:06:02.365Z,2.49
2023-02-27T08:08:29.697Z,2.55
2023-02-27T08:10:56.344Z,2.65
2023-02-27T08:13:42.306Z,2.82
2023-02-27T08:16:09.535Z,2.92
2023-02-27T08:18:36.176Z,3.03
2023-02-27T08:21:04.978Z,3.15
2023-02-27T08:23:32.544Z,3.28
2023-02-27T08:25:59.285Z,3.46
2023-02-27T08:28:25.808Z,3.81
2023-02-27T08:30:52.590Z,4.16
2023-02-27T08:33:19.186Z,4.24
2023-02-27T08:35:45.741Z,4.27
2023-02-27T08:38:12.313Z,4.19
2023-02-27T08:40:38.985Z,4.12
2023-02-27T08:43:05.432Z,4.15
2023-02-27T08:45:31.946Z,4.21
2023-02-27T08:47:58.510Z,4.25
2023-02-27T08:50:25.036Z,4.25
2023-02-27T08:52:51.599Z,4.31
2023-02-27T08:55:18.320Z,4.35
2023-02-27T08:57:44.788Z,4.52
2023-02-27T09:00:14.654Z,4.60
2023-02-27T09:02:41.644Z,4.70
2023-02-27T09:05:08.677Z,4.82
2023-02-27T09:07:35.194Z,4.83
2023-02-27T09:10:01.656Z,4.97
2023-02-27T09:12:28.180Z,5.09
2023-02-27T09:14:54.851Z,5.24
2023-02-27T09:17:21.705Z,5.37
2023-02-27T09:19:48.226Z,5.47
2023-02-27T09:22:14.764Z,5.41
2023-02-27T09:24:41.243Z,5.48
2023-02-27T09:27:07.745Z,5.53
2023-02-27T09:29:34.335Z,5.68
2023-02-27T09:32:01.088Z,5.70
2023-02-27T09:34:27.697Z,5.72
2023-02-27T09:36:54.143Z,5.82
2023-02-27T09:39:21.463Z,5.82
2023-02-27T09:42:05.488Z,5.87
2023-02-27T09:45:05.505Z,5.90
2023-02-27T09:47:40.049Z,5.95
2023-02-27T09:50:18.416Z,5.99
2023-02-27T09:52:45.135Z,6.03
2023-02-27T09:55:19.041Z,6.05
2023-02-27T09:58:14.209Z,6.16
2023-02-27T10:00:55.719Z,6.36
2023-02-27T10:03:47.907Z,6.48
2023-02-27T10:06:33.929Z,6.43
2023-02-27T10:09:14.368Z,6.52
2023-02-27T10:11:58.240Z,6.59
2023-02-27T10:14:33.705Z,6.66
2023-02-27T10:17:03.771Z,6.74
2023-02-27T10:19:37.241Z,6.75
2023-02-27T10:22:10.209Z,6.86
2023-02-27T10:24:52.576Z,6.77
2023-02-27T10:27:21.660Z,6.87
2023-02-27T10:29:48.485Z,6.97
2023-02-27T10:32:17.128Z,6.92
2023-02-27T10:34:49.027Z,6.96
2023-02-27T10:37:18.300Z,7.08
2023-02-27T10:40:00.414Z,7.17
2023-02-27T10:42:33.003Z,7.26
2023-02-27T10:44:59.602Z,7.26
2023-02-27T10:47:26.724Z,7.51
2023-02-27T10:49:54.782Z,7.50
2023-02-27T10:52:21.587Z,7.64
2023-02-27T10:54:48.717Z,7.76
2023-02-27T10:57:30.455Z,7.84
2023-02-27T11:00:06.433Z,8.08
2023-02-27T11:02:37.231Z,8.29
2023-02-27T11:05:06.676Z,8.17
2023-02-27T11:07:37.364Z,8.20
2023-02-27T11:10:06.806Z,8.17
2023-02-27T11:12:35.370Z,8.17
2023-02-27T11:15:23.700Z,7.97
2023-02-27T11:17:50.211Z,7.93
2023-02-27T11:20:33.739Z,7.97
2023-02-27T11:23:16.566Z,7.81
2023-02-27T11:25:44.125Z,8.21
2023-02-27T11:28:22.941Z,8.36
2023-02-27T11:31:00.999Z,8.31
2023-02-27T11:33:29.655Z,8.19
2023-02-27T11:35:58.709Z,8.08
2023-02-27T11:38:29.292Z,8.01
2023-02-27T11:41:04.690Z,8.16
2023-02-27T11:43:48.276Z,8.33
2023-02-27T11:46:41.993Z,8.34
2023-02-27T11:49:33.531Z,8.34
2023-02-27T11:52:29.155Z,8.61
2023-02-27T11:54:58.786Z,8.71
2023-02-27T11:57:25.316Z,8.80
2023-02-27T12:00:08.448Z,8.96
2023-02-27T12:02:55.338Z,9.15
2023-02-27T12:05:30.493Z,9.17
2023-02-27T12:08:11.217Z,9.21
2023-02-27T12:10:55.626Z,9.16
2023-02-27T12:13:30.133Z,9.01
2023-02-27T12:16:33.322Z,8.99
2023-02-27T12:19:15.042Z,9.14
2023-02-27T12:21:48.399Z,8.90
2023-02-27T12:24:26.020Z,9.24
2023-02-27T12:27:24.850Z,9.23
2023-02-27T12:29:59.021Z,9.26
2023-02-27T12:32:31.803Z,9.21
2023-02-27T12:35:13.828Z,9.40
2023-02-27T12:37:40.312Z,9.65
2023-02-27T12:40:09.131Z,9.77
2023-02-27T12:42:36.163Z,9.89
2023-02-27T12:45:05.254Z,9.97
2023-02-27T12:48:03.931Z,10.12
2023-02-27T12:51:02.784Z,10.23
2023-02-27T12:53:35.567Z,10.05
2023-02-27T12:56:10.834Z,10.29
2023-02-27T12:58:46.054Z,10.41
2023-02-27T13:01:21.318Z,10.49
2023-02-27T13:04:20.243Z,10.47
2023-02-27T13:07:04.771Z,10.46
2023-02-27T13:09:50.444Z,10.37
2023-02-27T13:12:40.884Z,10.07
2023-02-27T13:15:29.539Z,9.86
2023-02-27T13:18:16.146Z,9.63
2023-02-27T13:21:18.507Z,9.45
2023-02-27T13:24:09.942Z,9.60
2023-02-27T13:26:41.564Z,9.82
2023-02-27T13:29:15.357Z,9.62
2023-02-27T13:31:52.862Z,9.28
2023-02-27T13:34:40.694Z,9.80
2023-02-27T13:37:09.041Z,10.08
2023-02-27T13:39:51.807Z,10.62
2023-02-27T13:42:27.354Z,10.31
2023-02-27T13:44:58.912Z,10.01
2023-02-27T13:47:31.152Z,9.58
2023-02-27T13:50:21.466Z,9.59
2023-02-27T13:52:48.779Z,9.63
2023-02-27T13:55:37.708Z,9.63
2023-02-27T13:58:05.670Z,9.67
2023-02-27T14:00:34.978Z,9.60
2023-02-27T14:03:08.751Z,9.49
2023-02-27T14:05:42.372Z,9.55
2023-02-27T14:08:11.888Z,10.32
2023-02-27T14:10:50.285Z,10.88
2023-02-27T14:13:50.950Z,11.45
2023-02-27T14:16:39.821Z,12.43
2023-02-27T14:19:28.142Z,12.93
2023-02-27T14:22:01.028Z,13.57
2023-02-27T14:25:00.931Z,14.03
2023-02-27T14:27:38.633Z,14.42
2023-02-27T14:30:10.036Z,14.29
2023-02-27T14:32:37.779Z,13.86
2023-02-27T14:35:06.165Z,12.85
2023-02-27T14:37:35.567Z,12.16
2023-02-27T14:40:06.060Z,11.73
2023-02-27T14:42:45.617Z,11.38
2023-02-27T14:45:20.697Z,11.44
2023-02-27T14:47:47.780Z,12.16
2023-02-27T14:50:40.816Z,11.40
2023-02-27T14:53:21.277Z,11.12
2023-02-27T14:55:54.376Z,11.32
2023-02-27T14:58:22.189Z,11.17
2023-02-27T15:01:02.432Z,10.83
2023-02-27T15:03:34.871Z,11.70
2023-02-27T15:06:04.860Z,12.57
2023-02-27T15:08:38.005Z,12.18
2023-02-27T15:11:06.398Z,12.24
2023-02-27T15:13:36.521Z,12.32
2023-02-27T15:16:31.749Z,12.21
2023-02-27T15:19:15.274Z,11.84
2023-02-27T15:21:50.019Z,11.55
2023-02-27T15:24:31.380Z,11.21
2023-02-27T15:27:01.389Z,10.80
2023-02-27T15:29:42.472Z,10.35
2023-02-27T15:32:17.741Z,10.17
2023-02-27T15:34:45.104Z,10.35
2023-02-27T15:37:27.372Z,11.27
2023-02-27T15:39:55.121Z,12.50
2023-02-27T15:42:26.405Z,13.26
2023-02-27T15:44:54.075Z,13.39
2023-02-27T15:47:30.871Z,13.79
2023-02-27T15:50:17.098Z,13.42
2023-02-27T15:53:20.080Z,13.01
2023-02-27T15:55:58.692Z,12.25
2023-02-27T15:58:28.611Z,12.09
2023-02-27T16:01:18.795Z,11.96
2023-02-27T16:03:48.268Z,11.67
2023-02-27T16:06:35.148Z,11.44
2023-02-27T16:09:19.489Z,11.28
2023-02-27T16:11:46.154Z,11.15
2023-02-27T16:14:44.734Z,11.42
2023-02-27T16:17:25.030Z,11.76
2023-02-27T16:19:52.236Z,12.37
2023-02-27T16:22:20.715Z,13.01
2023-02-27T16:24:47.964Z,13.20
2023-02-27T16:27:26.637Z,13.41
2023-02-27T16:29:56.080Z,13.33
2023-02-27T16:32:34.709Z,13.55
2023-02-27T16:35:04.195Z,13.79
2023-02-27T16:37:38.717Z,14.20
2023-02-27T16:40:19.758Z,14.28
2023-02-27T16:42:46.897Z,13.20
2023-02-27T16:45:25.556Z,12.70
2023-02-27T16:47:58.470Z,13.30
2023-02-27T16:50:33.605Z,13.35
2023-02-27T16:53:00.197Z,13.21
2023-02-27T16:55:27.361Z,12.32
2023-02-27T16:57:54.255Z,11.82
2023-02-27T17:00:22.569Z,11.09
2023-02-27T17:02:49.919Z,10.58
2023-02-27T17:05:17.231Z,10.29
2023-02-27T17:07:44.782Z,10.04
2023-02-27T17:10:17.932Z,9.76
2023-02-27T17:12:44.388Z,9.62
2023-02-27T17:15:10.988Z,9.38
2023-02-27T17:17:37.491Z,9.29
2023-02-27T17:20:07.207Z,9.04
2023-02-27T17:22:39.458Z,8.91
2023-02-27T17:25:06.793Z,8.92
2023-02-27T17:27:33.617Z,8.83
2023-02-27T17:30:00.146Z,8.72
2023-02-27T17:32:26.977Z,8.55
2023-02-27T17:34:55.228Z,8.37
2023-02-27T17:37:22.461Z,8.24
2023-02-27T17:39:49.240Z,8.20
2023-02-27T17:42:18.468Z,8.11
2023-02-27T17:44:48.103Z,7.98
2023-02-27T17:47:15.281Z,7.85
2023-02-27T17:49:41.864Z,7.84
2023-02-27T17:52:09.264Z,7.67
2023-02-27T17:54:36.248Z,7.68
2023-02-27T17:57:04.897Z,7.62
2023-02-27T17:59:31.685Z,7.59
2023-02-27T18:01:58.730Z,7.56
2023-02-27T18:04:25.578Z,7.53
2023-02-27T18:06:52.182Z,7.41
2023-02-27T18:09:18.854Z,7.29
2023-02-27T18:11:45.390Z,7.09
2023-02-27T18:14:12.145Z,6.96
2023-02-27T18:16:38.668Z,6.87
2023-02-27T18:19:06.445Z,6.74
2023-02-27T18:21:33.854Z,6.73
2023-02-27T18:24:00.761Z,6.72
2023-02-27T18:26:32.519Z,6.70
2023-02-27T18:29:02.118Z,6.68
2023-02-27T18:31:36.213Z,6.53
2023-02-27T18:34:03.278Z,6.46
2023-02-27T18:36:31.280Z,6.35
2023-02-27T18:38:58.690Z,6.32
2023-02-27T18:41:25.751Z,6.27
2023-02-27T18:43:53.434Z,6.20
2023-02-27T18:46:20.212Z,6.12
2023-02-27T18:48:47.237Z,6.05
2023-02-27T18:51:15.435Z,6.01
2023-02-27T18:53:45.871Z,6.03
2023-02-27T18:56:13.839Z,6.03
2023-02-27T18:58:40.571Z,5.98
2023-02-27T19:01:07.577Z,5.94
2023-02-27T19:03:35.630Z,5.94
2023-02-27T19:06:02.194Z,5.91
2023-02-27T19:08:29.245Z,5.86
2023-02-27T19:10:56.916Z,5.84
2023-02-27T19:13:25.334Z,5.86
2023-02-27T19:15:52.665Z,5.82
2023-02-27T19:18:19.519Z,5.85
2023-02-27T19:20:45.974Z,5.89
2023-02-27T19:23:12.514Z,5.73
2023-02-27T19:25:39.145Z,5.59
2023-02-27T19:28:06.419Z,5.53
2023-02-27T19:30:33.286Z,5.55
2023-02-27T19:32:59.899Z,5.49
2023-02-27T19:35:26.410Z,5.42
2023-02-27T19:37:57.983Z,5.36
2023-02-27T19:40:26.192Z,5.37
2023-02-27T19:42:52.911Z,5.33
2023-02-27T19:45:20.268Z,5.40
2023-02-27T19:47:46.817Z,5.45
2023-02-27T19:50:13.873Z,5.38
2023-02-27T19:52:40.730Z,5.42
2023-02-27T19:55:07.860Z,5.44
2023-02-27T19:57:35.411Z,5.63
2023-02-27T20:00:01.943Z,5.71
2023-02-27T20:02:29.083Z,5.67
2023-02-27T20:04:55.679Z,5.60
2023-02-27T20:07:22.826Z,5.58
2023-02-27T20:09:49.682Z,5.62
2023-02-27T20:12:16.158Z,5.65
2023-02-27T20:14:42.605Z,5.58
2023-02-27T20:17:09.034Z,5.56
2023-02-27T20:19:36.446Z,5.53
2023-02-27T20:22:03.657Z,5.45
2023-02-27T20:24:30.172Z,5.37
2023-02-27T20:26:59.057Z,5.32
2023-02-27T20:29:27.290Z,5.26
2023-02-27T20:31:55.717Z,5.23
2023-02-27T20:34:26.206Z,5.14
2023-02-27T20:36:54.550Z,5.13
2023-02-27T20:39:21.813Z,5.14
2023-02-27T20:41:48.890Z,5.10
2023-02-27T20:44:15.411Z,5.01
2023-02-27T20:46:43.842Z,4.94
2023-02-27T20:49:12.449Z,4.91
2023-02-27T20:51:40.243Z,4.80
2023-02-27T20:54:13.482Z,4.74
2023-02-27T20:56:43.176Z,4.64
2023-02-27T20:59:13.527Z,4.67
2023-02-27T21:01:40.296Z,4.68
2023-02-27T21:04:07.085Z,4.58
2023-02-27T21:06:34.904Z,4.63
2023-02-27T21:09:05.327Z,4.70
2023-02-27T21:11:33.272Z,4.63
2023-02-27T21:14:04.159Z,4.52
2023-02-27T21:16:31.171Z,4.48
2023-02-27T21:18:57.785Z,4.43
2023-02-27T21:21:28.088Z,4.35
2023-02-27T21:23:55.078Z,4.42
2023-02-27T21:26:24.940Z,4.36
2023-02-27T21:29:04.829Z,4.28
2023-02-27T21:31:33.168Z,4.28
2023-02-27T21:34:01.860Z,4.21
2023-02-27T21:36:32.223Z,4.16
2023-02-27T21:39:00.406Z,4.17
2023-02-27T21:41:28.476Z,4.17
2023-02-27T21:44:03.708Z,4.05
2023-02-27T21:46:31.257Z,4.08
2023-02-27T21:48:58.491Z,4.06
2023-02-27T21:51:38.813Z,4.00
2023-02-27T21:54:06.717Z,4.07
2023-02-27T21:56:33.252Z,4.09
2023-02-27T21:59:01.876Z,3.95
2023-02-27T22:01:29.594Z,3.88
2023-02-27T22:03:57.039Z,3.88
2023-02-27T22:06:25.329Z,3.87
2023-02-27T22:08:57.588Z,3.96
2023-02-27T22:11:26.607Z,3.88
2023-02-27T22:13:53.314Z,3.88
2023-02-27T22:16:20.570Z,3.92
2023-02-27T22:18:47.652Z,3.83
2023-02-27T22:21:22.576Z,3.81
2023-02-27T22:23:49.529Z,3.79
2023-02-27T22:26:20.351Z,3.73
2023-02-27T22:28:47.123Z,3.69
2023-02-27T22:31:18.989Z,3.69
2023-02-27T22:33:47.809Z,3.77
2023-02-27T22:36:24.331Z,3.75
2023-02-27T22:38:51.923Z,3.74
2023-02-27T22:41:24.525Z,3.68
2023-02-27T22:43:51.365Z,3.68
2023-02-27T22:46:27.035Z,3.62
2023-02-27T22:48:58.459Z,3.57
2023-02-27T22:51:27.793Z,3.51
2023-02-27T22:53:56.706Z,3.48
2023-02-27T22:56:23.935Z,3.47
2023-02-27T22:58:50.510Z,3.50
2023-02-27T23:01:22.889Z,3.47
2023-02-27T23:03:51.589Z,3.45
2023-02-27T23:06:21.396Z,3.42
2023-02-27T23:08:48.447Z,3.40
2023-02-27T23:11:16.597Z,3.35
2023-02-27T23:13:43.178Z,3.34
2023-02-27T23:16:13.742Z,3.37
2023-02-27T23:18:41.737Z,3.34
2023-02-27T23:21:09.554Z,3.46
2023-02-27T23:23:36.499Z,3.46
2023-02-27T23:26:04.363Z,3.31
2023-02-27T23:28:30.845Z,3.29
2023-02-27T23:30:57.412Z,3.39
2023-02-27T23:33:23.910Z,3.38
2023-02-27T23:35:51.846Z,3.22
2023-02-27T23:38:18.740Z,3.16
2023-02-27T23:40:45.223Z,3.12
2023-02-27T23:43:30.459Z,3.08
2023-02-27T23:45:56.972Z,3.08
2023-02-27T23:48:23.972Z,3.05
2023-02-27T23:50:50.432Z,3.01
2023-02-27T23:53:17.122Z,2.93
2023-02-27T23:55:44.043Z,2.93
2023-02-27T23:58:11.261Z,2.94
